sensor_id;sensor_type;location;lat;lon;timestamp;pressure;altitude;pressure_sealevel;temperature;humidity
50011;BME280;35899;50.352;19.390;2023-05-01T00:01:35;98296.36;;;3.48;56.79
50011;BME280;35899;50.352;19.390;2023-05-01T00:04:02;98298.89;;;3.39;57.28
50011;BME280;35899;50.352;19.390;2023-05-01T00:06:28;98299.63;;;3.32;57.56
50011;BME280;35899;50.352;19.390;2023-05-01T00:08:55;98303.20;;;3.29;57.61
50011;BME280;35899;50.352;19.390;2023-05-01T00:11:21;98300.79;;;3.24;58.17
50011;BME280;35899;50.352;19.390;2023-05-01T00:13:47;98299.08;;;3.19;58.29
50011;BME280;35899;50.352;19.390;2023-05-01T00:16:14;98299.36;;;3.16;58.77
50011;BME280;35899;50.352;19.390;2023-05-01T00:18:40;98298.14;;;3.11;58.98
50011;BME280;35899;50.352;19.390;2023-05-01T00:21:07;98298.78;;;3.07;59.29
50011;BME280;35899;50.352;19.390;2023-05-01T00:23:33;98303.41;;;3.07;59.44
50011;BME280;35899;50.352;19.390;2023-05-01T00:26:00;98303.21;;;3.07;59.58
50011;BME280;35899;50.352;19.390;2023-05-01T00:28:26;98300.08;;;3.04;59.76
50011;BME280;35899;50.352;19.390;2023-05-01T00:30:52;98298.09;;;3.02;59.82
50011;BME280;35899;50.352;19.390;2023-05-01T00:33:19;98295.00;;;3.08;59.88
50011;BME280;35899;50.352;19.390;2023-05-01T00:35:45;98296.53;;;3.08;60.09
50011;BME280;35899;50.352;19.390;2023-05-01T00:38:12;98296.85;;;3.09;59.96
50011;BME280;35899;50.352;19.390;2023-05-01T00:40:44;98296.02;;;3.13;60.15
50011;BME280;35899;50.352;19.390;2023-05-01T00:43:11;98297.48;;;3.20;60.12
50011;BME280;35899;50.352;19.390;2023-05-01T00:45:37;98295.79;;;3.25;60.21
50011;BME280;35899;50.352;19.390;2023-05-01T00:48:04;98294.02;;;3.27;60.07
50011;BME280;35899;50.352;19.390;2023-05-01T00:50:31;98289.56;;;3.27;59.88
50011;BME280;35899;50.352;19.390;2023-05-01T00:52:58;98288.27;;;3.25;59.82
50011;BME280;35899;50.352;19.390;2023-05-01T00:55:25;98287.89;;;3.21;59.89
50011;BME280;35899;50.352;19.390;2023-05-01T00:57:51;98285.42;;;3.18;59.87
50011;BME280;35899;50.352;19.390;2023-05-01T01:00:18;98290.48;;;3.16;59.84
50011;BME280;35899;50.352;19.390;2023-05-01T01:02:47;98291.54;;;3.15;59.80
50011;BME280;35899;50.352;19.390;2023-05-01T01:05:14;98291.62;;;3.12;59.82
50011;BME280;35899;50.352;19.390;2023-05-01T01:07:47;98291.95;;;3.12;59.93
50011;BME280;35899;50.352;19.390;2023-05-01T01:10:15;98292.71;;;3.10;60.25
50011;BME280;35899;50.352;19.390;2023-05-01T01:15:17;98298.50;;;2.90;60.33
50011;BME280;35899;50.352;19.390;2023-05-01T01:20:23;98297.86;;;2.79;60.30
50011;BME280;35899;50.352;19.390;2023-05-01T01:28:31;98297.05;;;2.56;60.46
50011;BME280;35899;50.352;19.390;2023-05-01T01:31:10;98298.01;;;2.58;60.65
50011;BME280;35899;50.352;19.390;2023-05-01T01:33:48;98298.60;;;2.56;60.73
50011;BME280;35899;50.352;19.390;2023-05-01T01:36:21;98296.01;;;2.51;60.81
50011;BME280;35899;50.352;19.390;2023-05-01T01:38:57;98294.05;;;2.54;61.06
50011;BME280;35899;50.352;19.390;2023-05-01T01:41:32;98291.75;;;2.56;61.29
50011;BME280;35899;50.352;19.390;2023-05-01T01:44:03;98287.52;;;2.55;61.19
50011;BME280;35899;50.352;19.390;2023-05-01T01:46:32;98284.61;;;2.49;61.02
50011;BME280;35899;50.352;19.390;2023-05-01T01:49:00;98284.61;;;2.45;61.13
50011;BME280;35899;50.352;19.390;2023-05-01T01:51:27;98282.80;;;2.42;61.27
50011;BME280;35899;50.352;19.390;2023-05-01T01:53:55;98281.35;;;2.33;61.15
50011;BME280;35899;50.352;19.390;2023-05-01T01:56:23;98279.48;;;2.22;61.53
50011;BME280;35899;50.352;19.390;2023-05-01T01:58:52;98281.94;;;2.14;61.68
50011;BME280;35899;50.352;19.390;2023-05-01T02:01:19;98279.02;;;2.09;62.08
50011;BME280;35899;50.352;19.390;2023-05-01T02:03:48;98278.33;;;2.04;62.23
50011;BME280;35899;50.352;19.390;2023-05-01T02:06:14;98274.68;;;2.00;62.44
50011;BME280;35899;50.352;19.390;2023-05-01T02:08:43;98274.98;;;1.96;62.58
50011;BME280;35899;50.352;19.390;2023-05-01T02:11:10;98267.76;;;1.92;62.67
50011;BME280;35899;50.352;19.390;2023-05-01T02:13:38;98267.57;;;1.93;62.89
50011;BME280;35899;50.352;19.390;2023-05-01T02:16:06;98266.61;;;1.96;62.73
50011;BME280;35899;50.352;19.390;2023-05-01T02:18:33;98268.00;;;1.95;62.99
50011;BME280;35899;50.352;19.390;2023-05-01T02:21:01;98266.06;;;1.91;62.84
50011;BME280;35899;50.352;19.390;2023-05-01T02:23:28;98262.48;;;1.92;63.05
50011;BME280;35899;50.352;19.390;2023-05-01T02:25:56;98257.73;;;1.96;63.33
50011;BME280;35899;50.352;19.390;2023-05-01T02:28:23;98255.70;;;2.01;63.21
50011;BME280;35899;50.352;19.390;2023-05-01T02:30:52;98256.80;;;2.05;63.38
50011;BME280;35899;50.352;19.390;2023-05-01T02:33:19;98257.42;;;2.07;63.46
50011;BME280;35899;50.352;19.390;2023-05-01T02:35:46;98255.05;;;2.06;63.68
50011;BME280;35899;50.352;19.390;2023-05-01T02:38:14;98252.03;;;1.99;63.66
50011;BME280;35899;50.352;19.390;2023-05-01T02:40:46;98250.23;;;1.95;63.61
50011;BME280;35899;50.352;19.390;2023-05-01T02:43:15;98250.02;;;1.98;63.71
50011;BME280;35899;50.352;19.390;2023-05-01T02:45:43;98247.76;;;1.99;63.76
50011;BME280;35899;50.352;19.390;2023-05-01T02:48:12;98245.29;;;2.01;63.75
50011;BME280;35899;50.352;19.390;2023-05-01T02:50:41;98248.20;;;2.01;63.70
50011;BME280;35899;50.352;19.390;2023-05-01T02:53:10;98247.86;;;2.01;63.65
50011;BME280;35899;50.352;19.390;2023-05-01T02:55:48;98246.91;;;1.99;63.68
50011;BME280;35899;50.352;19.390;2023-05-01T02:58:16;98249.29;;;1.99;63.58
50011;BME280;35899;50.352;19.390;2023-05-01T03:00:42;98250.33;;;1.99;63.77
50011;BME280;35899;50.352;19.390;2023-05-01T03:03:09;98248.09;;;1.99;63.86
50011;BME280;35899;50.352;19.390;2023-05-01T03:05:35;98244.39;;;1.98;63.76
50011;BME280;35899;50.352;19.390;2023-05-01T03:08:02;98251.61;;;1.95;63.73
50011;BME280;35899;50.352;19.390;2023-05-01T03:10:28;98252.25;;;1.92;63.82
50011;BME280;35899;50.352;19.390;2023-05-01T03:12:55;98250.97;;;1.89;63.90
50011;BME280;35899;50.352;19.390;2023-05-01T03:15:21;98249.86;;;1.86;63.78
50011;BME280;35899;50.352;19.390;2023-05-01T03:17:47;98247.52;;;1.84;63.89
50011;BME280;35899;50.352;19.390;2023-05-01T03:20:14;98245.66;;;1.83;63.93
50011;BME280;35899;50.352;19.390;2023-05-01T03:22:40;98242.11;;;1.82;63.93
50011;BME280;35899;50.352;19.390;2023-05-01T03:25:07;98238.91;;;1.81;63.91
50011;BME280;35899;50.352;19.390;2023-05-01T03:27:34;98236.32;;;1.82;63.96
50011;BME280;35899;50.352;19.390;2023-05-01T03:30:01;98236.98;;;1.83;63.94
50011;BME280;35899;50.352;19.390;2023-05-01T03:32:28;98231.77;;;1.80;63.86
50011;BME280;35899;50.352;19.390;2023-05-01T03:34:55;98230.42;;;1.80;63.88
50011;BME280;35899;50.352;19.390;2023-05-01T03:37:22;98228.70;;;1.79;63.84
50011;BME280;35899;50.352;19.390;2023-05-01T03:39:48;98226.27;;;1.75;63.86
50011;BME280;35899;50.352;19.390;2023-05-01T03:42:34;98223.54;;;1.75;64.08
50011;BME280;35899;50.352;19.390;2023-05-01T03:45:06;98226.55;;;1.78;64.24
50011;BME280;35899;50.352;19.390;2023-05-01T03:47:32;98226.41;;;1.82;64.46
50011;BME280;35899;50.352;19.390;2023-05-01T03:49:59;98228.98;;;1.87;64.59
50011;BME280;35899;50.352;19.390;2023-05-01T03:52:25;98224.90;;;1.93;64.69
50011;BME280;35899;50.352;19.390;2023-05-01T03:54:52;98222.63;;;2.00;64.77
50011;BME280;35899;50.352;19.390;2023-05-01T03:57:32;98222.95;;;2.06;64.81
50011;BME280;35899;50.352;19.390;2023-05-01T03:59:58;98226.36;;;2.12;64.74
50011;BME280;35899;50.352;19.390;2023-05-01T04:02:25;98222.82;;;2.21;64.84
50011;BME280;35899;50.352;19.390;2023-05-01T04:04:52;98224.61;;;2.29;64.87
50011;BME280;35899;50.352;19.390;2023-05-01T04:07:18;98221.83;;;2.36;64.87
50011;BME280;35899;50.352;19.390;2023-05-01T04:09:46;98219.86;;;2.45;64.86
50011;BME280;35899;50.352;19.390;2023-05-01T04:12:13;98219.55;;;2.54;65.02
50011;BME280;35899;50.352;19.390;2023-05-01T04:14:39;98217.55;;;2.68;65.12
50011;BME280;35899;50.352;19.390;2023-05-01T04:17:05;98216.70;;;2.83;65.36
50011;BME280;35899;50.352;19.390;2023-05-01T04:19:34;98212.42;;;2.98;65.34
50011;BME280;35899;50.352;19.390;2023-05-01T04:22:02;98206.13;;;3.16;65.36
50011;BME280;35899;50.352;19.390;2023-05-01T04:24:29;98200.89;;;3.29;64.94
50011;BME280;35899;50.352;19.390;2023-05-01T04:26:55;98203.98;;;3.42;64.86
50011;BME280;35899;50.352;19.390;2023-05-01T04:29:22;98203.81;;;3.52;64.69
50011;BME280;35899;50.352;19.390;2023-05-01T04:31:49;98204.41;;;3.64;64.68
50011;BME280;35899;50.352;19.390;2023-05-01T04:34:16;98204.56;;;3.78;64.58
50011;BME280;35899;50.352;19.390;2023-05-01T04:36:42;98204.54;;;3.87;64.05
50011;BME280;35899;50.352;19.390;2023-05-01T04:39:08;98206.76;;;3.96;63.80
50011;BME280;35899;50.352;19.390;2023-05-01T04:41:35;98205.66;;;4.11;64.11
50011;BME280;35899;50.352;19.390;2023-05-01T04:44:02;98206.81;;;4.25;64.09
50011;BME280;35899;50.352;19.390;2023-05-01T04:46:29;98207.71;;;4.46;64.01
50011;BME280;35899;50.352;19.390;2023-05-01T04:48:56;98207.16;;;4.63;63.75
50011;BME280;35899;50.352;19.390;2023-05-01T04:51:22;98207.64;;;4.77;63.56
50011;BME280;35899;50.352;19.390;2023-05-01T04:53:50;98209.70;;;4.88;63.06
50011;BME280;35899;50.352;19.390;2023-05-01T04:56:20;98212.43;;;5.01;62.87
50011;BME280;35899;50.352;19.390;2023-05-01T04:58:48;98210.86;;;5.14;62.43
50011;BME280;35899;50.352;19.390;2023-05-01T05:01:17;98210.79;;;5.19;62.06
50011;BME280;35899;50.352;19.390;2023-05-01T05:03:44;98210.37;;;5.24;62.25
50011;BME280;35899;50.352;19.390;2023-05-01T05:06:15;98208.05;;;5.35;62.77
50011;BME280;35899;50.352;19.390;2023-05-01T05:08:42;98210.15;;;5.45;62.76
50011;BME280;35899;50.352;19.390;2023-05-01T05:11:09;98208.66;;;5.55;62.82
50011;BME280;35899;50.352;19.390;2023-05-01T05:13:58;98208.08;;;5.65;62.68
50011;BME280;35899;50.352;19.390;2023-05-01T05:16:28;98206.20;;;5.72;62.51
50011;BME280;35899;50.352;19.390;2023-05-01T05:18:55;98201.53;;;5.76;62.24
50011;BME280;35899;50.352;19.390;2023-05-01T05:21:24;98200.30;;;5.84;62.59
50011;BME280;35899;50.352;19.390;2023-05-01T05:23:53;98202.48;;;5.93;62.60
50011;BME280;35899;50.352;19.390;2023-05-01T05:26:26;98202.98;;;6.05;62.93
50011;BME280;35899;50.352;19.390;2023-05-01T05:28:55;98207.97;;;6.15;62.53
50011;BME280;35899;50.352;19.390;2023-05-01T05:31:21;98205.73;;;6.26;62.45
50011;BME280;35899;50.352;19.390;2023-05-01T05:33:48;98206.65;;;6.39;62.66
50011;BME280;35899;50.352;19.390;2023-05-01T05:36:15;98207.66;;;6.54;62.67
50011;BME280;35899;50.352;19.390;2023-05-01T05:38:42;98210.11;;;6.70;62.80
50011;BME280;35899;50.352;19.390;2023-05-01T05:41:11;98209.51;;;6.86;62.79
50011;BME280;35899;50.352;19.390;2023-05-01T05:43:38;98203.63;;;7.00;62.74
50011;BME280;35899;50.352;19.390;2023-05-01T05:46:05;98208.27;;;7.14;62.71
50011;BME280;35899;50.352;19.390;2023-05-01T05:48:33;98204.73;;;7.29;62.65
50011;BME280;35899;50.352;19.390;2023-05-01T05:50:59;98204.88;;;7.43;62.42
50011;BME280;35899;50.352;19.390;2023-05-01T05:53:26;98209.56;;;7.58;62.40
50011;BME280;35899;50.352;19.390;2023-05-01T05:55:53;98208.48;;;7.75;62.54
50011;BME280;35899;50.352;19.390;2023-05-01T05:58:19;98211.79;;;7.91;62.10
50011;BME280;35899;50.352;19.390;2023-05-01T06:00:46;98208.52;;;8.06;62.19
50011;BME280;35899;50.352;19.390;2023-05-01T06:03:13;98205.48;;;8.24;61.95
50011;BME280;35899;50.352;19.390;2023-05-01T06:05:41;98205.39;;;8.41;61.92
50011;BME280;35899;50.352;19.390;2023-05-01T06:08:08;98200.41;;;8.53;61.49
50011;BME280;35899;50.352;19.390;2023-05-01T06:10:34;98199.15;;;8.66;61.56
50011;BME280;35899;50.352;19.390;2023-05-01T06:13:01;98197.66;;;8.79;61.45
50011;BME280;35899;50.352;19.390;2023-05-01T06:15:40;98201.84;;;8.96;61.60
50011;BME280;35899;50.352;19.390;2023-05-01T06:18:07;98198.36;;;9.11;61.43
50011;BME280;35899;50.352;19.390;2023-05-01T06:20:34;98200.44;;;9.26;61.78
50011;BME280;35899;50.352;19.390;2023-05-01T06:23:01;98203.67;;;9.41;61.30
50011;BME280;35899;50.352;19.390;2023-05-01T06:25:36;98206.77;;;9.55;61.05
50011;BME280;35899;50.352;19.390;2023-05-01T06:28:02;98205.74;;;9.72;61.08
50011;BME280;35899;50.352;19.390;2023-05-01T06:30:30;98207.95;;;9.89;60.70
50011;BME280;35899;50.352;19.390;2023-05-01T06:32:57;98204.52;;;10.05;60.68
50011;BME280;35899;50.352;19.390;2023-05-01T06:35:24;98203.29;;;10.22;60.36
50011;BME280;35899;50.352;19.390;2023-05-01T06:37:50;98203.27;;;10.39;59.84
50011;BME280;35899;50.352;19.390;2023-05-01T06:40:17;98201.69;;;10.52;59.26
50011;BME280;35899;50.352;19.390;2023-05-01T06:42:43;98203.99;;;10.67;58.77
50011;BME280;35899;50.352;19.390;2023-05-01T06:45:09;98203.94;;;10.81;58.02
50011;BME280;35899;50.352;19.390;2023-05-01T06:47:36;98198.32;;;10.93;57.52
50011;BME280;35899;50.352;19.390;2023-05-01T06:50:03;98196.58;;;11.06;57.01
50011;BME280;35899;50.352;19.390;2023-05-01T06:52:32;98192.86;;;11.20;56.33
50011;BME280;35899;50.352;19.390;2023-05-01T06:54:58;98193.18;;;11.33;55.72
50011;BME280;35899;50.352;19.390;2023-05-01T06:57:25;98188.30;;;11.46;55.05
50011;BME280;35899;50.352;19.390;2023-05-01T06:59:52;98181.07;;;11.57;54.70
50011;BME280;35899;50.352;19.390;2023-05-01T07:02:18;98181.33;;;11.66;54.64
50011;BME280;35899;50.352;19.390;2023-05-01T07:04:45;98180.67;;;11.75;54.11
50011;BME280;35899;50.352;19.390;2023-05-01T07:07:11;98177.94;;;11.85;53.66
50011;BME280;35899;50.352;19.390;2023-05-01T07:09:38;98178.14;;;11.94;52.60
50011;BME280;35899;50.352;19.390;2023-05-01T07:12:05;98177.37;;;12.05;52.18
50011;BME280;35899;50.352;19.390;2023-05-01T07:14:33;98175.41;;;12.16;51.82
50011;BME280;35899;50.352;19.390;2023-05-01T07:16:59;98180.16;;;12.24;50.94
50011;BME280;35899;50.352;19.390;2023-05-01T07:19:26;98180.82;;;12.32;50.81
50011;BME280;35899;50.352;19.390;2023-05-01T07:21:52;98178.51;;;12.40;50.75
50011;BME280;35899;50.352;19.390;2023-05-01T07:24:19;98179.40;;;12.44;49.86
50011;BME280;35899;50.352;19.390;2023-05-01T07:26:45;98176.77;;;12.51;50.07
50011;BME280;35899;50.352;19.390;2023-05-01T07:29:11;98178.89;;;12.63;49.97
50011;BME280;35899;50.352;19.390;2023-05-01T07:31:38;98179.01;;;12.73;48.97
50011;BME280;35899;50.352;19.390;2023-05-01T07:34:04;98176.08;;;12.80;48.90
50011;BME280;35899;50.352;19.390;2023-05-01T07:36:31;98171.52;;;12.87;48.66
50011;BME280;35899;50.352;19.390;2023-05-01T07:38:57;98172.73;;;12.94;48.08
50011;BME280;35899;50.352;19.390;2023-05-01T07:41:23;98169.73;;;13.01;47.97
50011;BME280;35899;50.352;19.390;2023-05-01T07:43:50;98168.11;;;13.09;47.81
50011;BME280;35899;50.352;19.390;2023-05-01T07:46:17;98169.66;;;13.14;47.04
50011;BME280;35899;50.352;19.390;2023-05-01T07:48:44;98165.41;;;13.15;46.41
50011;BME280;35899;50.352;19.390;2023-05-01T07:51:11;98164.02;;;13.19;46.37
50011;BME280;35899;50.352;19.390;2023-05-01T07:53:37;98169.34;;;13.29;46.82
50011;BME280;35899;50.352;19.390;2023-05-01T07:56:06;98170.45;;;13.38;46.43
50011;BME280;35899;50.352;19.390;2023-05-01T07:58:33;98169.83;;;13.41;45.54
50011;BME280;35899;50.352;19.390;2023-05-01T08:00:59;98171.53;;;13.44;45.79
50011;BME280;35899;50.352;19.390;2023-05-01T08:03:29;98174.65;;;13.51;45.74
50011;BME280;35899;50.352;19.390;2023-05-01T08:05:56;98173.44;;;13.60;45.88
50011;BME280;35899;50.352;19.390;2023-05-01T08:08:23;98177.20;;;13.69;45.69
50011;BME280;35899;50.352;19.390;2023-05-01T08:10:49;98183.55;;;13.79;45.63
50011;BME280;35899;50.352;19.390;2023-05-01T08:13:16;98181.10;;;13.86;44.88
50011;BME280;35899;50.352;19.390;2023-05-01T08:15:46;98175.90;;;13.93;44.69
50011;BME280;35899;50.352;19.390;2023-05-01T08:18:12;98172.60;;;13.99;44.72
50011;BME280;35899;50.352;19.390;2023-05-01T08:20:39;98174.29;;;14.06;44.08
50011;BME280;35899;50.352;19.390;2023-05-01T08:23:05;98176.25;;;14.07;43.03
50011;BME280;35899;50.352;19.390;2023-05-01T08:25:32;98175.02;;;14.10;42.89
50011;BME280;35899;50.352;19.390;2023-05-01T08:27:58;98171.95;;;14.16;42.74
50011;BME280;35899;50.352;19.390;2023-05-01T08:30:25;98168.17;;;14.21;42.86
50011;BME280;35899;50.352;19.390;2023-05-01T08:32:51;98171.02;;;14.32;43.34
50011;BME280;35899;50.352;19.390;2023-05-01T08:35:18;98165.65;;;14.42;43.32
50011;BME280;35899;50.352;19.390;2023-05-01T08:37:44;98166.41;;;14.49;43.73
50011;BME280;35899;50.352;19.390;2023-05-01T08:40:11;98169.11;;;14.60;43.47
50011;BME280;35899;50.352;19.390;2023-05-01T08:42:38;98169.67;;;14.65;43.42
50011;BME280;35899;50.352;19.390;2023-05-01T08:45:08;98161.00;;;14.71;43.04
50011;BME280;35899;50.352;19.390;2023-05-01T08:47:35;98169.58;;;14.81;43.17
50011;BME280;35899;50.352;19.390;2023-05-01T08:50:02;98165.48;;;14.91;42.53
50011;BME280;35899;50.352;19.390;2023-05-01T08:52:29;98161.02;;;14.96;42.15
50011;BME280;35899;50.352;19.390;2023-05-01T08:54:58;98163.46;;;15.02;40.89
50011;BME280;35899;50.352;19.390;2023-05-01T08:57:28;98160.05;;;14.97;41.14
50011;BME280;35899;50.352;19.390;2023-05-01T08:59:55;98162.56;;;15.09;41.94
50011;BME280;35899;50.352;19.390;2023-05-01T09:02:23;98161.52;;;15.17;40.99
50011;BME280;35899;50.352;19.390;2023-05-01T09:04:49;98160.34;;;15.24;41.07
50011;BME280;35899;50.352;19.390;2023-05-01T09:07:16;98156.41;;;15.34;41.37
50011;BME280;35899;50.352;19.390;2023-05-01T09:09:42;98154.86;;;15.42;41.19
50011;BME280;35899;50.352;19.390;2023-05-01T09:12:17;98149.75;;;15.40;39.84
50011;BME280;35899;50.352;19.390;2023-05-01T09:14:47;98146.58;;;15.45;40.09
50011;BME280;35899;50.352;19.390;2023-05-01T09:17:13;98146.30;;;15.56;40.25
50011;BME280;35899;50.352;19.390;2023-05-01T09:19:40;98148.23;;;15.68;39.56
50011;BME280;35899;50.352;19.390;2023-05-01T09:22:07;98140.33;;;15.75;39.26
50011;BME280;35899;50.352;19.390;2023-05-01T09:24:36;98136.20;;;15.84;39.67
50011;BME280;35899;50.352;19.390;2023-05-01T09:27:04;98138.20;;;15.99;40.38
50011;BME280;35899;50.352;19.390;2023-05-01T09:29:40;98137.33;;;16.09;40.78
50011;BME280;35899;50.352;19.390;2023-05-01T09:32:14;98133.85;;;16.18;40.57
50011;BME280;35899;50.352;19.390;2023-05-01T09:34:41;98133.73;;;16.31;40.94
50011;BME280;35899;50.352;19.390;2023-05-01T09:42:49;98130.77;;;16.81;40.16
50011;BME280;35899;50.352;19.390;2023-05-01T09:45:16;98128.65;;;16.87;40.32
50011;BME280;35899;50.352;19.390;2023-05-01T09:47:44;98129.10;;;16.94;39.87
50011;BME280;35899;50.352;19.390;2023-05-01T09:50:11;98127.96;;;16.95;38.14
50011;BME280;35899;50.352;19.390;2023-05-01T09:52:53;98122.64;;;17.29;38.47
50011;BME280;35899;50.352;19.390;2023-05-01T09:55:19;98119.12;;;17.72;37.89
50011;BME280;35899;50.352;19.390;2023-05-01T09:57:46;98114.41;;;18.20;38.76
50011;BME280;35899;50.352;19.390;2023-05-01T10:00:13;98110.52;;;18.68;38.24
50011;BME280;35899;50.352;19.390;2023-05-01T10:02:40;98106.09;;;19.10;37.41
50011;BME280;35899;50.352;19.390;2023-05-01T10:05:08;98106.20;;;19.57;36.78
50011;BME280;35899;50.352;19.390;2023-05-01T10:07:35;98103.44;;;20.05;36.81
50011;BME280;35899;50.352;19.390;2023-05-01T10:10:17;98102.26;;;20.49;36.68
50011;BME280;35899;50.352;19.390;2023-05-01T10:12:44;98105.11;;;20.84;35.60
50011;BME280;35899;50.352;19.390;2023-05-01T10:15:11;98100.86;;;21.04;35.06
50011;BME280;35899;50.352;19.390;2023-05-01T10:17:51;98092.50;;;21.29;34.76
50011;BME280;35899;50.352;19.390;2023-05-01T10:20:18;98095.36;;;21.66;34.39
50011;BME280;35899;50.352;19.390;2023-05-01T10:22:45;98090.13;;;22.04;34.76
50011;BME280;35899;50.352;19.390;2023-05-01T10:25:11;98088.98;;;22.42;33.78
50011;BME280;35899;50.352;19.390;2023-05-01T10:27:38;98084.19;;;22.67;32.28
50011;BME280;35899;50.352;19.390;2023-05-01T10:30:05;98083.80;;;22.85;31.28
50011;BME280;35899;50.352;19.390;2023-05-01T10:32:35;98080.40;;;23.03;30.54
50011;BME280;35899;50.352;19.390;2023-05-01T10:35:10;98073.15;;;23.34;30.29
50011;BME280;35899;50.352;19.390;2023-05-01T10:37:47;98068.67;;;23.80;30.55
50011;BME280;35899;50.352;19.390;2023-05-01T10:45:45;98069.55;;;24.61;29.54
50011;BME280;35899;50.352;19.390;2023-05-01T10:48:11;98066.92;;;25.02;29.10
50011;BME280;35899;50.352;19.390;2023-05-01T10:53:24;98068.45;;;25.98;28.01
50011;BME280;35899;50.352;19.390;2023-05-01T10:55:50;98067.04;;;26.37;26.88
50011;BME280;35899;50.352;19.390;2023-05-01T11:03:48;98058.70;;;27.64;25.52
50011;BME280;35899;50.352;19.390;2023-05-01T11:06:14;98057.23;;;27.89;24.39
50011;BME280;35899;50.352;19.390;2023-05-01T11:08:41;98054.73;;;28.32;25.10
50011;BME280;35899;50.352;19.390;2023-05-01T11:14:05;98058.33;;;29.22;23.64
50011;BME280;35899;50.352;19.390;2023-05-01T11:19:05;98055.86;;;30.22;22.59
50011;BME280;35899;50.352;19.390;2023-05-01T11:21:32;98052.79;;;30.65;23.04
50011;BME280;35899;50.352;19.390;2023-05-01T11:24:00;98044.95;;;31.03;22.76
50011;BME280;35899;50.352;19.390;2023-05-01T11:26:29;98039.60;;;31.51;22.99
50011;BME280;35899;50.352;19.390;2023-05-01T11:28:59;98036.75;;;31.96;22.50
50011;BME280;35899;50.352;19.390;2023-05-01T11:31:26;98033.15;;;32.29;21.70
50011;BME280;35899;50.352;19.390;2023-05-01T11:33:56;98032.79;;;32.70;21.51
50011;BME280;35899;50.352;19.390;2023-05-01T11:36:22;98028.48;;;33.26;21.03
50011;BME280;35899;50.352;19.390;2023-05-01T11:38:49;98025.21;;;33.61;20.60
50011;BME280;35899;50.352;19.390;2023-05-01T11:41:16;98020.59;;;33.80;20.34
50011;BME280;35899;50.352;19.390;2023-05-01T11:43:53;98020.56;;;33.97;20.57
50011;BME280;35899;50.352;19.390;2023-05-01T11:46:30;98014.19;;;34.12;19.92
50011;BME280;35899;50.352;19.390;2023-05-01T11:48:57;98014.29;;;34.50;19.86
50011;BME280;35899;50.352;19.390;2023-05-01T11:51:24;98010.33;;;34.65;19.59
50011;BME280;35899;50.352;19.390;2023-05-01T11:56:23;98006.23;;;35.02;19.18
50011;BME280;35899;50.352;19.390;2023-05-01T11:58:57;98000.21;;;35.48;18.89
50011;BME280;35899;50.352;19.390;2023-05-01T12:01:34;97997.83;;;35.83;18.56
50011;BME280;35899;50.352;19.390;2023-05-01T12:04:01;97994.04;;;36.12;18.32
50011;BME280;35899;50.352;19.390;2023-05-01T12:06:36;97991.56;;;36.23;18.42
50011;BME280;35899;50.352;19.390;2023-05-01T12:09:03;97990.86;;;36.42;18.62
50011;BME280;35899;50.352;19.390;2023-05-01T12:11:29;97995.10;;;36.56;18.54
50011;BME280;35899;50.352;19.390;2023-05-01T12:13:56;97984.08;;;36.85;18.02
50011;BME280;35899;50.352;19.390;2023-05-01T12:16:22;97985.31;;;37.00;17.75
50011;BME280;35899;50.352;19.390;2023-05-01T12:18:49;97979.14;;;37.12;17.67
50011;BME280;35899;50.352;19.390;2023-05-01T12:21:15;97977.14;;;37.32;17.79
50011;BME280;35899;50.352;19.390;2023-05-01T12:23:42;97979.42;;;37.55;17.42
50011;BME280;35899;50.352;19.390;2023-05-01T12:26:15;97977.43;;;37.76;17.34
50011;BME280;35899;50.352;19.390;2023-05-01T12:28:55;97973.23;;;38.15;17.29
50011;BME280;35899;50.352;19.390;2023-05-01T12:31:22;97966.48;;;38.60;17.36
50011;BME280;35899;50.352;19.390;2023-05-01T12:34:23;97968.23;;;38.68;16.06
50011;BME280;35899;50.352;19.390;2023-05-01T12:36:51;97962.84;;;38.75;16.21
50011;BME280;35899;50.352;19.390;2023-05-01T12:39:18;97960.25;;;39.15;15.94
50011;BME280;35899;50.352;19.390;2023-05-01T12:41:46;97956.70;;;39.13;15.50
50011;BME280;35899;50.352;19.390;2023-05-01T12:44:20;97951.82;;;38.78;15.92
50011;BME280;35899;50.352;19.390;2023-05-01T12:46:54;97949.15;;;38.58;15.67
50011;BME280;35899;50.352;19.390;2023-05-01T12:49:22;97943.90;;;38.32;15.81
50011;BME280;35899;50.352;19.390;2023-05-01T12:51:49;97943.58;;;38.61;15.47
50011;BME280;35899;50.352;19.390;2023-05-01T12:54:28;97938.70;;;38.98;15.41
50011;BME280;35899;50.352;19.390;2023-05-01T12:57:16;97935.22;;;39.30;14.81
50011;BME280;35899;50.352;19.390;2023-05-01T12:59:45;97933.94;;;39.83;15.00
50011;BME280;35899;50.352;19.390;2023-05-01T13:02:20;97922.76;;;40.21;14.68
50011;BME280;35899;50.352;19.390;2023-05-01T13:05:15;97921.09;;;40.23;14.49
50011;BME280;35899;50.352;19.390;2023-05-01T13:07:46;97920.36;;;40.49;14.96
50011;BME280;35899;50.352;19.390;2023-05-01T13:10:13;97916.00;;;40.99;14.41
50011;BME280;35899;50.352;19.390;2023-05-01T13:12:43;97917.07;;;41.04;13.99
50011;BME280;35899;50.352;19.390;2023-05-01T13:15:22;97917.33;;;40.80;13.72
50011;BME280;35899;50.352;19.390;2023-05-01T13:17:52;97917.40;;;40.74;14.24
50011;BME280;35899;50.352;19.390;2023-05-01T13:20:30;97914.84;;;40.83;14.15
50011;BME280;35899;50.352;19.390;2023-05-01T13:22:59;97910.45;;;40.87;14.00
50011;BME280;35899;50.352;19.390;2023-05-01T13:25:25;97900.48;;;41.11;13.85
50011;BME280;35899;50.352;19.390;2023-05-01T13:27:52;97900.86;;;41.08;13.24
50011;BME280;35899;50.352;19.390;2023-05-01T13:30:19;97903.21;;;40.89;13.27
50011;BME280;35899;50.352;19.390;2023-05-01T13:32:46;97899.01;;;41.04;13.50
50011;BME280;35899;50.352;19.390;2023-05-01T13:35:20;97897.02;;;41.10;13.36
50011;BME280;35899;50.352;19.390;2023-05-01T13:37:47;97895.39;;;41.45;13.57
50011;BME280;35899;50.352;19.390;2023-05-01T13:40:13;97889.30;;;41.66;13.28